Fort Saint John, Canada
Current Conditions -  °F | °C
As of 5:00 AM on Tuesday 21 Oct 2014 (Local Time) from CYXJ Reporting Station
Broken Clouds Broken Clouds  
Wind Chill: 33°   Ceiling: 15000
Heat Index: 37°   Visibility: 15mi
Dew Point: 34°   Wind: 6mph
Humidity: 87%   Direction: 130°SE
Pressure: 29.52"   Gusts: NA
Location:  56.25°N, 120.85°W
Report Text: CYXJ 211100Z 13005KT 15SM BKN150 03/01 A2952 RMK AC7 SLP014
Loading
Personal Weather Stations






























Interactive Weather Map New forecast layout! Learn more

10-Day Weather Forecast

Advertisements
Track Severe Weather on mobile